sensor_id;sensor_type;location;lat;lon;timestamp;temperature;humidity
4651;DHT22;2338;49.602;8.722;2023-09-19T00:02:18;17.80;99.90
4651;DHT22;2338;49.602;8.722;2023-09-19T00:05:04;17.90;99.90
4651;DHT22;2338;49.602;8.722;2023-09-19T00:07:50;17.90;99.90
4651;DHT22;2338;49.602;8.722;2023-09-19T00:10:38;17.90;99.90
4651;DHT22;2338;49.602;8.722;2023-09-19T00:13:25;18.00;99.90
4651;DHT22;2338;49.602;8.722;2023-09-19T00:16:13;18.00;99.90
4651;DHT22;2338;49.602;8.722;2023-09-19T00:19:00;18.00;99.90
4651;DHT22;2338;49.602;8.722;2023-09-19T00:21:52;18.10;99.90
4651;DHT22;2338;49.602;8.722;2023-09-19T00:24:38;18.10;99.90
4651;DHT22;2338;49.602;8.722;2023-09-19T00:27:24;18.00;99.90
4651;DHT22;2338;49.602;8.722;2023-09-19T00:30:12;18.00;99.90
4651;DHT22;2338;49.602;8.722;2023-09-19T00:33:00;17.90;99.90
4651;DHT22;2338;49.602;8.722;2023-09-19T00:35:52;18.00;99.90
4651;DHT22;2338;49.602;8.722;2023-09-19T00:38:38;18.10;99.90
4651;DHT22;2338;49.602;8.722;2023-09-19T00:41:24;18.10;99.90
4651;DHT22;2338;49.602;8.722;2023-09-19T00:44:10;18.00;99.90
4651;DHT22;2338;49.602;8.722;2023-09-19T00:46:56;18.10;99.90
4651;DHT22;2338;49.602;8.722;2023-09-19T00:49:45;18.10;99.90
4651;DHT22;2338;49.602;8.722;2023-09-19T00:52:35;18.10;99.90
4651;DHT22;2338;49.602;8.722;2023-09-19T00:55:23;18.20;99.90
4651;DHT22;2338;49.602;8.722;2023-09-19T00:58:10;18.20;99.90
4651;DHT22;2338;49.602;8.722;2023-09-19T01:00:56;18.20;99.90
4651;DHT22;2338;49.602;8.722;2023-09-19T01:03:41;18.20;99.90
4651;DHT22;2338;49.602;8.722;2023-09-19T01:06:27;18.20;99.90
4651;DHT22;2338;49.602;8.722;2023-09-19T01:09:15;18.20;99.90
4651;DHT22;2338;49.602;8.722;2023-09-19T01:12:02;18.10;99.90
4651;DHT22;2338;49.602;8.722;2023-09-19T01:14:55;18.00;99.90
4651;DHT22;2338;49.602;8.722;2023-09-19T01:17:48;18.00;99.90
4651;DHT22;2338;49.602;8.722;2023-09-19T01:20:40;18.10;99.90
4651;DHT22;2338;49.602;8.722;2023-09-19T01:23:50;18.10;99.90
4651;DHT22;2338;49.602;8.722;2023-09-19T01:27:02;18.10;99.90
4651;DHT22;2338;49.602;8.722;2023-09-19T01:29:52;18.20;99.90
4651;DHT22;2338;49.602;8.722;2023-09-19T01:32:41;18.20;99.90
4651;DHT22;2338;49.602;8.722;2023-09-19T01:35:30;18.10;99.90
4651;DHT22;2338;49.602;8.722;2023-09-19T01:38:17;18.00;99.90
4651;DHT22;2338;49.602;8.722;2023-09-19T01:41:10;17.90;99.90
4651;DHT22;2338;49.602;8.722;2023-09-19T01:43:57;17.90;99.90
4651;DHT22;2338;49.602;8.722;2023-09-19T01:46:45;17.90;99.90
4651;DHT22;2338;49.602;8.722;2023-09-19T01:49:44;18.00;99.90
4651;DHT22;2338;49.602;8.722;2023-09-19T01:52:31;18.00;99.90
4651;DHT22;2338;49.602;8.722;2023-09-19T01:55:22;18.00;99.90
4651;DHT22;2338;49.602;8.722;2023-09-19T01:58:16;17.90;99.90
4651;DHT22;2338;49.602;8.722;2023-09-19T02:01:04;17.70;99.90
4651;DHT22;2338;49.602;8.722;2023-09-19T02:03:52;17.70;99.90
4651;DHT22;2338;49.602;8.722;2023-09-19T02:06:41;17.70;99.90
4651;DHT22;2338;49.602;8.722;2023-09-19T02:09:27;17.70;99.90
4651;DHT22;2338;49.602;8.722;2023-09-19T02:12:12;17.70;99.90
4651;DHT22;2338;49.602;8.722;2023-09-19T02:15:00;17.60;99.90
4651;DHT22;2338;49.602;8.722;2023-09-19T02:17:45;17.70;99.90
4651;DHT22;2338;49.602;8.722;2023-09-19T02:20:31;17.70;99.90
4651;DHT22;2338;49.602;8.722;2023-09-19T02:23:18;17.70;99.90
4651;DHT22;2338;49.602;8.722;2023-09-19T02:26:04;17.80;99.90
4651;DHT22;2338;49.602;8.722;2023-09-19T02:28:50;17.70;99.90
4651;DHT22;2338;49.602;8.722;2023-09-19T02:31:37;17.70;99.90
4651;DHT22;2338;49.602;8.722;2023-09-19T02:34:23;17.80;99.90
4651;DHT22;2338;49.602;8.722;2023-09-19T02:37:10;17.80;99.90
4651;DHT22;2338;49.602;8.722;2023-09-19T02:39:58;17.60;99.90
4651;DHT22;2338;49.602;8.722;2023-09-19T02:42:45;17.60;99.90
4651;DHT22;2338;49.602;8.722;2023-09-19T02:45:33;17.70;99.90
4651;DHT22;2338;49.602;8.722;2023-09-19T02:48:20;17.70;99.90
4651;DHT22;2338;49.602;8.722;2023-09-19T02:51:06;17.70;99.90
4651;DHT22;2338;49.602;8.722;2023-09-19T02:53:52;17.70;99.90
4651;DHT22;2338;49.602;8.722;2023-09-19T02:56:40;17.80;99.90
4651;DHT22;2338;49.602;8.722;2023-09-19T02:59:26;17.60;99.90
4651;DHT22;2338;49.602;8.722;2023-09-19T03:02:12;17.70;99.90
4651;DHT22;2338;49.602;8.722;2023-09-19T03:04:59;17.70;99.90
4651;DHT22;2338;49.602;8.722;2023-09-19T03:07:45;17.80;99.90
4651;DHT22;2338;49.602;8.722;2023-09-19T03:10:31;17.90;99.90
4651;DHT22;2338;49.602;8.722;2023-09-19T03:13:18;17.80;99.90
4651;DHT22;2338;49.602;8.722;2023-09-19T03:16:04;17.70;99.90
4651;DHT22;2338;49.602;8.722;2023-09-19T03:18:51;17.70;99.90
4651;DHT22;2338;49.602;8.722;2023-09-19T03:21:36;17.70;99.90
4651;DHT22;2338;49.602;8.722;2023-09-19T03:24:23;17.50;99.90
4651;DHT22;2338;49.602;8.722;2023-09-19T03:27:09;17.40;99.90
4651;DHT22;2338;49.602;8.722;2023-09-19T03:29:56;17.40;99.90
4651;DHT22;2338;49.602;8.722;2023-09-19T03:32:45;17.50;99.90
4651;DHT22;2338;49.602;8.722;2023-09-19T03:35:34;17.50;99.90
4651;DHT22;2338;49.602;8.722;2023-09-19T03:38:21;17.40;99.90
4651;DHT22;2338;49.602;8.722;2023-09-19T03:41:07;17.40;99.90
4651;DHT22;2338;49.602;8.722;2023-09-19T03:43:53;17.50;99.90
4651;DHT22;2338;49.602;8.722;2023-09-19T03:46:40;17.50;99.90
4651;DHT22;2338;49.602;8.722;2023-09-19T03:49:26;17.50;99.90
4651;DHT22;2338;49.602;8.722;2023-09-19T03:52:12;17.50;99.90
4651;DHT22;2338;49.602;8.722;2023-09-19T03:54:58;17.50;99.90
4651;DHT22;2338;49.602;8.722;2023-09-19T03:57:48;17.50;99.90
4651;DHT22;2338;49.602;8.722;2023-09-19T04:00:34;17.40;99.90
4651;DHT22;2338;49.602;8.722;2023-09-19T04:03:21;17.30;99.90
4651;DHT22;2338;49.602;8.722;2023-09-19T04:06:07;17.40;99.90
4651;DHT22;2338;49.602;8.722;2023-09-19T04:08:53;17.20;99.90
4651;DHT22;2338;49.602;8.722;2023-09-19T04:11:39;17.10;99.90
4651;DHT22;2338;49.602;8.722;2023-09-19T04:14:24;17.20;99.90
4651;DHT22;2338;49.602;8.722;2023-09-19T04:17:10;17.20;99.90
4651;DHT22;2338;49.602;8.722;2023-09-19T04:19:57;17.10;99.90
4651;DHT22;2338;49.602;8.722;2023-09-19T04:22:43;17.10;99.90
4651;DHT22;2338;49.602;8.722;2023-09-19T04:25:29;17.10;99.90
4651;DHT22;2338;49.602;8.722;2023-09-19T04:28:16;17.10;99.90
4651;DHT22;2338;49.602;8.722;2023-09-19T04:31:02;17.00;99.90
4651;DHT22;2338;49.602;8.722;2023-09-19T04:33:47;17.00;99.90
4651;DHT22;2338;49.602;8.722;2023-09-19T04:36:34;16.90;99.90
4651;DHT22;2338;49.602;8.722;2023-09-19T04:39:20;16.80;99.90
4651;DHT22;2338;49.602;8.722;2023-09-19T04:42:10;16.80;99.90
4651;DHT22;2338;49.602;8.722;2023-09-19T04:44:59;16.70;99.90
4651;DHT22;2338;49.602;8.722;2023-09-19T04:47:45;16.70;99.90
4651;DHT22;2338;49.602;8.722;2023-09-19T04:50:31;16.70;99.90
4651;DHT22;2338;49.602;8.722;2023-09-19T04:53:18;16.70;99.90
4651;DHT22;2338;49.602;8.722;2023-09-19T04:56:04;16.60;99.90
4651;DHT22;2338;49.602;8.722;2023-09-19T04:58:52;16.50;99.90
4651;DHT22;2338;49.602;8.722;2023-09-19T05:01:38;16.40;99.90
4651;DHT22;2338;49.602;8.722;2023-09-19T05:04:24;16.30;99.90
4651;DHT22;2338;49.602;8.722;2023-09-19T05:07:09;16.20;99.90
4651;DHT22;2338;49.602;8.722;2023-09-19T05:09:57;16.30;99.90
4651;DHT22;2338;49.602;8.722;2023-09-19T05:12:42;16.10;99.90
4651;DHT22;2338;49.602;8.722;2023-09-19T05:15:31;16.00;99.90
4651;DHT22;2338;49.602;8.722;2023-09-19T05:18:17;16.00;99.90
4651;DHT22;2338;49.602;8.722;2023-09-19T05:21:03;16.00;99.90
4651;DHT22;2338;49.602;8.722;2023-09-19T05:23:51;16.10;99.90
4651;DHT22;2338;49.602;8.722;2023-09-19T05:26:38;16.10;99.90
4651;DHT22;2338;49.602;8.722;2023-09-19T05:29:24;16.10;99.90
4651;DHT22;2338;49.602;8.722;2023-09-19T05:32:10;16.00;99.90
4651;DHT22;2338;49.602;8.722;2023-09-19T05:34:55;16.10;99.90
4651;DHT22;2338;49.602;8.722;2023-09-19T05:37:41;16.20;99.90
4651;DHT22;2338;49.602;8.722;2023-09-19T05:40:27;16.20;99.90
4651;DHT22;2338;49.602;8.722;2023-09-19T05:43:17;16.10;99.90
4651;DHT22;2338;49.602;8.722;2023-09-19T05:46:03;16.20;99.90
4651;DHT22;2338;49.602;8.722;2023-09-19T05:48:49;16.30;99.90
4651;DHT22;2338;49.602;8.722;2023-09-19T05:51:34;16.40;99.90
4651;DHT22;2338;49.602;8.722;2023-09-19T05:54:20;16.20;99.90
4651;DHT22;2338;49.602;8.722;2023-09-19T05:57:06;16.20;99.90
4651;DHT22;2338;49.602;8.722;2023-09-19T05:59:54;16.30;99.90
4651;DHT22;2338;49.602;8.722;2023-09-19T06:02:39;16.50;99.90
4651;DHT22;2338;49.602;8.722;2023-09-19T06:05:26;16.50;99.90
4651;DHT22;2338;49.602;8.722;2023-09-19T06:08:14;16.50;99.90
4651;DHT22;2338;49.602;8.722;2023-09-19T06:11:00;16.60;99.90
4651;DHT22;2338;49.602;8.722;2023-09-19T06:13:46;16.60;99.90
4651;DHT22;2338;49.602;8.722;2023-09-19T06:16:34;16.60;99.90
4651;DHT22;2338;49.602;8.722;2023-09-19T06:19:20;16.50;99.90
4651;DHT22;2338;49.602;8.722;2023-09-19T06:22:06;16.50;99.90
4651;DHT22;2338;49.602;8.722;2023-09-19T06:24:52;16.60;99.90
4651;DHT22;2338;49.602;8.722;2023-09-19T06:27:39;16.60;99.90
4651;DHT22;2338;49.602;8.722;2023-09-19T06:30:26;16.60;99.90
4651;DHT22;2338;49.602;8.722;2023-09-19T06:33:15;16.60;99.90
4651;DHT22;2338;49.602;8.722;2023-09-19T06:36:03;16.80;99.90
4651;DHT22;2338;49.602;8.722;2023-09-19T06:38:49;16.90;99.90
4651;DHT22;2338;49.602;8.722;2023-09-19T06:41:35;16.90;99.90
4651;DHT22;2338;49.602;8.722;2023-09-19T06:44:22;17.00;99.90
4651;DHT22;2338;49.602;8.722;2023-09-19T06:47:09;17.00;99.90
4651;DHT22;2338;49.602;8.722;2023-09-19T06:49:57;17.10;99.90
4651;DHT22;2338;49.602;8.722;2023-09-19T06:52:42;17.10;99.90
4651;DHT22;2338;49.602;8.722;2023-09-19T06:55:28;17.20;99.90
4651;DHT22;2338;49.602;8.722;2023-09-19T06:58:15;17.20;99.90
4651;DHT22;2338;49.602;8.722;2023-09-19T07:01:01;17.30;99.90
4651;DHT22;2338;49.602;8.722;2023-09-19T07:03:47;17.50;99.90
4651;DHT22;2338;49.602;8.722;2023-09-19T07:06:34;17.40;99.90
4651;DHT22;2338;49.602;8.722;2023-09-19T07:09:20;17.40;99.90
4651;DHT22;2338;49.602;8.722;2023-09-19T07:12:07;17.30;99.90
4651;DHT22;2338;49.602;8.722;2023-09-19T07:14:52;17.30;99.90
4651;DHT22;2338;49.602;8.722;2023-09-19T07:17:39;17.30;99.90
4651;DHT22;2338;49.602;8.722;2023-09-19T07:20:25;17.20;99.90
4651;DHT22;2338;49.602;8.722;2023-09-19T07:23:13;17.10;99.90
4651;DHT22;2338;49.602;8.722;2023-09-19T07:25:59;17.20;99.90
4651;DHT22;2338;49.602;8.722;2023-09-19T07:28:45;17.20;99.90
4651;DHT22;2338;49.602;8.722;2023-09-19T07:31:31;17.40;99.90
4651;DHT22;2338;49.602;8.722;2023-09-19T07:34:18;17.50;99.90
4651;DHT22;2338;49.602;8.722;2023-09-19T07:37:05;17.50;99.90
4651;DHT22;2338;49.602;8.722;2023-09-19T07:39:52;17.50;99.90
4651;DHT22;2338;49.602;8.722;2023-09-19T07:42:38;17.60;99.90
4651;DHT22;2338;49.602;8.722;2023-09-19T07:45:25;17.60;99.90
4651;DHT22;2338;49.602;8.722;2023-09-19T07:48:11;17.60;99.90
4651;DHT22;2338;49.602;8.722;2023-09-19T07:51:02;17.70;99.90
4651;DHT22;2338;49.602;8.722;2023-09-19T07:53:48;17.80;99.90
4651;DHT22;2338;49.602;8.722;2023-09-19T07:56:36;17.90;99.90
4651;DHT22;2338;49.602;8.722;2023-09-19T07:59:21;18.00;99.90
4651;DHT22;2338;49.602;8.722;2023-09-19T08:02:08;18.20;99.90
4651;DHT22;2338;49.602;8.722;2023-09-19T08:05:00;18.20;99.90
4651;DHT22;2338;49.602;8.722;2023-09-19T08:07:50;18.20;99.90
4651;DHT22;2338;49.602;8.722;2023-09-19T08:10:36;18.30;99.90
4651;DHT22;2338;49.602;8.722;2023-09-19T08:13:26;18.30;99.90
4651;DHT22;2338;49.602;8.722;2023-09-19T08:16:12;18.50;99.90
4651;DHT22;2338;49.602;8.722;2023-09-19T08:18:59;18.40;99.90
4651;DHT22;2338;49.602;8.722;2023-09-19T08:22:04;18.10;99.90
4651;DHT22;2338;49.602;8.722;2023-09-19T08:24:50;18.00;99.90
4651;DHT22;2338;49.602;8.722;2023-09-19T08:27:35;18.10;99.90
4651;DHT22;2338;49.602;8.722;2023-09-19T08:30:23;18.10;99.90
4651;DHT22;2338;49.602;8.722;2023-09-19T08:33:11;18.10;99.90
4651;DHT22;2338;49.602;8.722;2023-09-19T08:35:59;18.20;99.90
4651;DHT22;2338;49.602;8.722;2023-09-19T08:38:45;18.00;99.90
4651;DHT22;2338;49.602;8.722;2023-09-19T08:41:31;18.00;99.90
4651;DHT22;2338;49.602;8.722;2023-09-19T08:44:17;18.00;99.90
4651;DHT22;2338;49.602;8.722;2023-09-19T08:47:09;18.00;99.90
4651;DHT22;2338;49.602;8.722;2023-09-19T08:50:03;18.20;99.90
4651;DHT22;2338;49.602;8.722;2023-09-19T08:52:51;18.30;99.90
4651;DHT22;2338;49.602;8.722;2023-09-19T08:55:40;18.30;99.90
4651;DHT22;2338;49.602;8.722;2023-09-19T08:58:31;18.20;99.90
4651;DHT22;2338;49.602;8.722;2023-09-19T09:01:18;18.20;99.90
4651;DHT22;2338;49.602;8.722;2023-09-19T09:04:10;18.10;99.90
4651;DHT22;2338;49.602;8.722;2023-09-19T09:06:57;18.10;99.90
4651;DHT22;2338;49.602;8.722;2023-09-19T09:09:43;18.20;99.90
4651;DHT22;2338;49.602;8.722;2023-09-19T09:12:29;18.40;99.90
4651;DHT22;2338;49.602;8.722;2023-09-19T09:15:17;18.40;99.90
4651;DHT22;2338;49.602;8.722;2023-09-19T09:18:06;18.40;99.90
4651;DHT22;2338;49.602;8.722;2023-09-19T09:20:53;18.50;99.90
4651;DHT22;2338;49.602;8.722;2023-09-19T09:23:40;18.50;99.90
4651;DHT22;2338;49.602;8.722;2023-09-19T09:26:41;18.40;99.90
4651;DHT22;2338;49.602;8.722;2023-09-19T09:29:44;18.50;99.90
4651;DHT22;2338;49.602;8.722;2023-09-19T09:32:31;18.60;99.90
4651;DHT22;2338;49.602;8.722;2023-09-19T09:35:19;18.60;99.90
4651;DHT22;2338;49.602;8.722;2023-09-19T09:38:07;18.70;99.90
4651;DHT22;2338;49.602;8.722;2023-09-19T09:40:55;18.80;99.90
4651;DHT22;2338;49.602;8.722;2023-09-19T09:43:45;18.90;99.90
4651;DHT22;2338;49.602;8.722;2023-09-19T09:46:33;19.00;99.90
4651;DHT22;2338;49.602;8.722;2023-09-19T09:49:36;18.90;95.60
4651;DHT22;2338;49.602;8.722;2023-09-19T09:52:23;18.80;94.70
4651;DHT22;2338;49.602;8.722;2023-09-19T09:55:10;18.80;94.00
4651;DHT22;2338;49.602;8.722;2023-09-19T09:58:18;18.60;95.40
4651;DHT22;2338;49.602;8.722;2023-09-19T10:01:07;18.70;95.20
4651;DHT22;2338;49.602;8.722;2023-09-19T10:03:58;18.70;92.40
4651;DHT22;2338;49.602;8.722;2023-09-19T10:06:44;18.70;91.60
4651;DHT22;2338;49.602;8.722;2023-09-19T10:09:45;18.70;91.50
4651;DHT22;2338;49.602;8.722;2023-09-19T10:12:33;18.60;84.20
4651;DHT22;2338;49.602;8.722;2023-09-19T10:15:19;18.70;82.50
4651;DHT22;2338;49.602;8.722;2023-09-19T10:18:05;18.80;80.80
4651;DHT22;2338;49.602;8.722;2023-09-19T10:20:53;18.80;80.20
4651;DHT22;2338;49.602;8.722;2023-09-19T10:23:40;18.90;83.50
4651;DHT22;2338;49.602;8.722;2023-09-19T10:26:30;19.00;79.50
4651;DHT22;2338;49.602;8.722;2023-09-19T10:29:18;19.10;78.60
4651;DHT22;2338;49.602;8.722;2023-09-19T10:32:04;19.40;78.10
4651;DHT22;2338;49.602;8.722;2023-09-19T10:34:54;19.60;77.60
4651;DHT22;2338;49.602;8.722;2023-09-19T10:37:42;19.70;75.10
4651;DHT22;2338;49.602;8.722;2023-09-19T10:40:30;19.80;75.10
4651;DHT22;2338;49.602;8.722;2023-09-19T10:43:17;19.90;73.70
4651;DHT22;2338;49.602;8.722;2023-09-19T10:46:07;20.00;74.60
4651;DHT22;2338;49.602;8.722;2023-09-19T10:48:59;20.10;69.50
4651;DHT22;2338;49.602;8.722;2023-09-19T10:51:45;20.30;63.60
4651;DHT22;2338;49.602;8.722;2023-09-19T10:54:35;20.40;65.30
4651;DHT22;2338;49.602;8.722;2023-09-19T10:57:24;20.70;59.60
4651;DHT22;2338;49.602;8.722;2023-09-19T11:00:12;20.90;57.50
4651;DHT22;2338;49.602;8.722;2023-09-19T11:03:22;20.90;53.60
4651;DHT22;2338;49.602;8.722;2023-09-19T11:06:16;21.00;54.40
4651;DHT22;2338;49.602;8.722;2023-09-19T11:09:04;20.80;47.00
4651;DHT22;2338;49.602;8.722;2023-09-19T11:12:00;20.80;51.10
4651;DHT22;2338;49.602;8.722;2023-09-19T11:14:46;20.60;48.60
4651;DHT22;2338;49.602;8.722;2023-09-19T11:17:33;20.70;56.30
4651;DHT22;2338;49.602;8.722;2023-09-19T11:20:23;20.70;55.40
4651;DHT22;2338;49.602;8.722;2023-09-19T11:23:23;20.90;61.50
4651;DHT22;2338;49.602;8.722;2023-09-19T11:26:39;21.00;48.50
4651;DHT22;2338;49.602;8.722;2023-09-19T11:29:29;20.90;46.50
4651;DHT22;2338;49.602;8.722;2023-09-19T11:32:15;21.00;47.60
4651;DHT22;2338;49.602;8.722;2023-09-19T11:35:07;21.20;44.40
4651;DHT22;2338;49.602;8.722;2023-09-19T11:38:04;21.20;38.70
4651;DHT22;2338;49.602;8.722;2023-09-19T11:44:34;21.10;39.80
4651;DHT22;2338;49.602;8.722;2023-09-19T11:47:22;20.90;41.00
4651;DHT22;2338;49.602;8.722;2023-09-19T11:50:09;21.00;39.60
4651;DHT22;2338;49.602;8.722;2023-09-19T11:52:55;21.10;40.80
4651;DHT22;2338;49.602;8.722;2023-09-19T11:55:43;21.20;42.70
4651;DHT22;2338;49.602;8.722;2023-09-19T11:58:30;21.40;42.20
4651;DHT22;2338;49.602;8.722;2023-09-19T12:01:23;21.50;38.90
4651;DHT22;2338;49.602;8.722;2023-09-19T12:04:11;21.70;42.00
4651;DHT22;2338;49.602;8.722;2023-09-19T12:06:59;21.80;37.90
4651;DHT22;2338;49.602;8.722;2023-09-19T12:09:46;21.80;35.30
4651;DHT22;2338;49.602;8.722;2023-09-19T12:12:33;21.80;37.90
4651;DHT22;2338;49.602;8.722;2023-09-19T12:15:23;21.90;32.90
4651;DHT22;2338;49.602;8.722;2023-09-19T12:18:26;21.90;30.60
4651;DHT22;2338;49.602;8.722;2023-09-19T12:21:28;21.80;29.20
4651;DHT22;2338;49.602;8.722;2023-09-19T12:24:15;22.00;31.60
4651;DHT22;2338;49.602;8.722;2023-09-19T12:27:05;22.10;32.80
4651;DHT22;2338;49.602;8.722;2023-09-19T12:29:52;22.30;29.60
4651;DHT22;2338;49.602;8.722;2023-09-19T12:32:39;22.60;31.10
4651;DHT22;2338;49.602;8.722;2023-09-19T12:35:29;22.70;28.60
4651;DHT22;2338;49.602;8.722;2023-09-19T12:38:25;22.60;27.10
4651;DHT22;2338;49.602;8.722;2023-09-19T12:41:12;22.70;26.20
4651;DHT22;2338;49.602;8.722;2023-09-19T12:43:58;22.70;24.80
4651;DHT22;2338;49.602;8.722;2023-09-19T12:51:49;22.50;23.50
4651;DHT22;2338;49.602;8.722;2023-09-19T12:54:42;22.50;24.70
4651;DHT22;2338;49.602;8.722;2023-09-19T12:57:30;22.60;24.30
4651;DHT22;2338;49.602;8.722;2023-09-19T13:00:18;22.70;24.80
4651;DHT22;2338;49.602;8.722;2023-09-19T13:03:12;22.90;25.20
4651;DHT22;2338;49.602;8.722;2023-09-19T13:06:01;23.00;24.60
4651;DHT22;2338;49.602;8.722;2023-09-19T13:09:07;23.00;21.40
4651;DHT22;2338;49.602;8.722;2023-09-19T13:11:53;22.90;20.40
4651;DHT22;2338;49.602;8.722;2023-09-19T13:14:39;22.50;21.90
4651;DHT22;2338;49.602;8.722;2023-09-19T13:17:42;22.60;23.80
4651;DHT22;2338;49.602;8.722;2023-09-19T13:20:29;22.70;23.10
4651;DHT22;2338;49.602;8.722;2023-09-19T13:23:26;22.80;23.10
4651;DHT22;2338;49.602;8.722;2023-09-19T13:26:13;23.20;24.90
4651;DHT22;2338;49.602;8.722;2023-09-19T13:28:59;23.50;21.90
4651;DHT22;2338;49.602;8.722;2023-09-19T13:31:48;23.40;21.60
4651;DHT22;2338;49.602;8.722;2023-09-19T13:34:34;23.40;22.30
4651;DHT22;2338;49.602;8.722;2023-09-19T13:37:20;22.80;21.30
4651;DHT22;2338;49.602;8.722;2023-09-19T13:40:07;22.50;22.90
4651;DHT22;2338;49.602;8.722;2023-09-19T13:42:54;22.30;23.50
4651;DHT22;2338;49.602;8.722;2023-09-19T13:45:40;22.00;23.90
4651;DHT22;2338;49.602;8.722;2023-09-19T13:48:27;22.00;24.50
4651;DHT22;2338;49.602;8.722;2023-09-19T13:51:14;22.10;24.70
4651;DHT22;2338;49.602;8.722;2023-09-19T13:54:00;22.00;25.40
4651;DHT22;2338;49.602;8.722;2023-09-19T13:56:46;22.20;25.00
4651;DHT22;2338;49.602;8.722;2023-09-19T13:59:33;22.50;25.00
4651;DHT22;2338;49.602;8.722;2023-09-19T14:02:18;22.80;24.80
4651;DHT22;2338;49.602;8.722;2023-09-19T14:05:07;23.00;23.70
4651;DHT22;2338;49.602;8.722;2023-09-19T14:07:53;22.90;24.30
4651;DHT22;2338;49.602;8.722;2023-09-19T14:10:40;23.00;24.00
4651;DHT22;2338;49.602;8.722;2023-09-19T14:13:26;23.00;24.70
4651;DHT22;2338;49.602;8.722;2023-09-19T14:16:13;22.50;24.10
4651;DHT22;2338;49.602;8.722;2023-09-19T14:18:59;22.10;26.30
4651;DHT22;2338;49.602;8.722;2023-09-19T14:21:44;22.00;28.10
4651;DHT22;2338;49.602;8.722;2023-09-19T14:24:30;22.00;28.80
4651;DHT22;2338;49.602;8.722;2023-09-19T14:27:16;21.90;29.10
4651;DHT22;2338;49.602;8.722;2023-09-19T14:30:01;21.70;27.80
4651;DHT22;2338;49.602;8.722;2023-09-19T14:32:50;21.70;28.30
4651;DHT22;2338;49.602;8.722;2023-09-19T14:35:37;21.90;29.40
4651;DHT22;2338;49.602;8.722;2023-09-19T14:38:23;22.00;28.40
4651;DHT22;2338;49.602;8.722;2023-09-19T14:41:09;21.80;27.50
4651;DHT22;2338;49.602;8.722;2023-09-19T14:43:54;21.80;28.60
4651;DHT22;2338;49.602;8.722;2023-09-19T14:46:40;21.80;29.90
4651;DHT22;2338;49.602;8.722;2023-09-19T14:49:27;21.60;29.30
4651;DHT22;2338;49.602;8.722;2023-09-19T14:52:13;21.60;31.90
4651;DHT22;2338;49.602;8.722;2023-09-19T14:55:00;21.60;29.50
4651;DHT22;2338;49.602;8.722;2023-09-19T14:57:49;21.50;31.90
4651;DHT22;2338;49.602;8.722;2023-09-19T15:00:36;21.40;30.00
4651;DHT22;2338;49.602;8.722;2023-09-19T15:03:21;21.40;31.10
4651;DHT22;2338;49.602;8.722;2023-09-19T15:06:09;21.40;30.90
4651;DHT22;2338;49.602;8.722;2023-09-19T15:08:58;21.40;30.60
4651;DHT22;2338;49.602;8.722;2023-09-19T15:11:44;21.40;34.60
4651;DHT22;2338;49.602;8.722;2023-09-19T15:14:29;21.50;32.40
4651;DHT22;2338;49.602;8.722;2023-09-19T15:17:15;21.50;31.40
4651;DHT22;2338;49.602;8.722;2023-09-19T15:20:01;21.80;32.40
4651;DHT22;2338;49.602;8.722;2023-09-19T15:22:52;22.10;34.20
4651;DHT22;2338;49.602;8.722;2023-09-19T15:25:37;22.30;31.90
4651;DHT22;2338;49.602;8.722;2023-09-19T15:28:24;22.50;31.60
4651;DHT22;2338;49.602;8.722;2023-09-19T15:31:11;22.50;29.30
4651;DHT22;2338;49.602;8.722;2023-09-19T15:33:57;22.60;31.40
4651;DHT22;2338;49.602;8.722;2023-09-19T15:36:42;22.70;32.70
4651;DHT22;2338;49.602;8.722;2023-09-19T15:39:31;22.60;28.60
4651;DHT22;2338;49.602;8.722;2023-09-19T15:42:19;22.60;29.30
4651;DHT22;2338;49.602;8.722;2023-09-19T15:45:05;22.60;28.80
4651;DHT22;2338;49.602;8.722;2023-09-19T15:47:51;22.60;29.90
4651;DHT22;2338;49.602;8.722;2023-09-19T15:50:37;22.40;29.10
4651;DHT22;2338;49.602;8.722;2023-09-19T15:53:22;22.20;29.90
4651;DHT22;2338;49.602;8.722;2023-09-19T15:56:09;22.20;30.60
4651;DHT22;2338;49.602;8.722;2023-09-19T15:58:55;22.20;30.40
4651;DHT22;2338;49.602;8.722;2023-09-19T16:01:42;22.30;29.50
4651;DHT22;2338;49.602;8.722;2023-09-19T16:04:28;22.30;28.30
4651;DHT22;2338;49.602;8.722;2023-09-19T16:07:15;22.40;29.70
4651;DHT22;2338;49.602;8.722;2023-09-19T16:10:03;22.60;31.50
4651;DHT22;2338;49.602;8.722;2023-09-19T16:12:49;22.60;28.50
4651;DHT22;2338;49.602;8.722;2023-09-19T16:15:41;22.40;28.70
4651;DHT22;2338;49.602;8.722;2023-09-19T16:18:28;22.30;30.80
4651;DHT22;2338;49.602;8.722;2023-09-19T16:21:16;22.10;28.50
4651;DHT22;2338;49.602;8.722;2023-09-19T16:24:03;21.90;29.70
4651;DHT22;2338;49.602;8.722;2023-09-19T16:26:49;21.80;30.90
4651;DHT22;2338;49.602;8.722;2023-09-19T16:29:37;21.80;36.00
4651;DHT22;2338;49.602;8.722;2023-09-19T16:32:22;21.80;34.50
4651;DHT22;2338;49.602;8.722;2023-09-19T16:35:08;21.70;36.00
4651;DHT22;2338;49.602;8.722;2023-09-19T16:37:53;21.70;38.20
4651;DHT22;2338;49.602;8.722;2023-09-19T16:40:39;21.50;36.90
4651;DHT22;2338;49.602;8.722;2023-09-19T16:43:27;21.40;37.80
4651;DHT22;2338;49.602;8.722;2023-09-19T16:46:14;21.40;41.10
4651;DHT22;2338;49.602;8.722;2023-09-19T16:49:02;21.30;39.30
4651;DHT22;2338;49.602;8.722;2023-09-19T16:51:48;21.30;40.80
4651;DHT22;2338;49.602;8.722;2023-09-19T16:54:34;21.30;47.90
4651;DHT22;2338;49.602;8.722;2023-09-19T16:57:20;21.30;49.80
4651;DHT22;2338;49.602;8.722;2023-09-19T17:00:07;21.20;54.60
4651;DHT22;2338;49.602;8.722;2023-09-19T17:02:56;21.10;48.60
4651;DHT22;2338;49.602;8.722;2023-09-19T17:05:41;21.00;47.70
4651;DHT22;2338;49.602;8.722;2023-09-19T17:08:29;21.00;54.40
4651;DHT22;2338;49.602;8.722;2023-09-19T17:11:15;20.80;51.60
4651;DHT22;2338;49.602;8.722;2023-09-19T17:14:01;20.80;52.40
4651;DHT22;2338;49.602;8.722;2023-09-19T17:16:47;20.80;56.10
4651;DHT22;2338;49.602;8.722;2023-09-19T17:19:35;20.70;57.50
4651;DHT22;2338;49.602;8.722;2023-09-19T17:22:20;20.70;57.70
4651;DHT22;2338;49.602;8.722;2023-09-19T17:25:06;20.70;57.10
4651;DHT22;2338;49.602;8.722;2023-09-19T17:27:52;20.60;56.40
4651;DHT22;2338;49.602;8.722;2023-09-19T17:30:38;20.60;59.90
4651;DHT22;2338;49.602;8.722;2023-09-19T17:33:24;20.60;62.50
4651;DHT22;2338;49.602;8.722;2023-09-19T17:36:13;20.40;57.70
4651;DHT22;2338;49.602;8.722;2023-09-19T17:38:59;20.40;62.00
4651;DHT22;2338;49.602;8.722;2023-09-19T17:41:48;20.40;67.40
4651;DHT22;2338;49.602;8.722;2023-09-19T17:44:34;20.30;73.60
4651;DHT22;2338;49.602;8.722;2023-09-19T17:47:20;20.10;82.80
4651;DHT22;2338;49.602;8.722;2023-09-19T17:50:07;20.00;77.80
4651;DHT22;2338;49.602;8.722;2023-09-19T17:52:57;20.00;74.60
4651;DHT22;2338;49.602;8.722;2023-09-19T17:55:45;20.00;76.40
4651;DHT22;2338;49.602;8.722;2023-09-19T17:58:31;20.10;75.70
4651;DHT22;2338;49.602;8.722;2023-09-19T18:01:17;20.00;80.00
4651;DHT22;2338;49.602;8.722;2023-09-19T18:04:04;19.90;86.70
4651;DHT22;2338;49.602;8.722;2023-09-19T18:06:51;19.70;88.70
4651;DHT22;2338;49.602;8.722;2023-09-19T18:09:38;19.70;91.70
4651;DHT22;2338;49.602;8.722;2023-09-19T18:12:23;19.50;93.90
4651;DHT22;2338;49.602;8.722;2023-09-19T18:15:10;19.40;95.00
4651;DHT22;2338;49.602;8.722;2023-09-19T18:17:56;19.20;96.90
4651;DHT22;2338;49.602;8.722;2023-09-19T18:20:42;19.10;99.00
4651;DHT22;2338;49.602;8.722;2023-09-19T18:23:28;18.80;99.90
4651;DHT22;2338;49.602;8.722;2023-09-19T18:26:15;18.60;99.90